createdAt,value
2022-10-21T00:00:13.250Z,96972.06
2022-10-21T00:02:39.815Z,96967.78
2022-10-21T00:05:06.894Z,96960.22
2022-10-21T00:07:34.423Z,96916.97
2022-10-21T00:10:00.898Z,96928.81
2022-10-21T00:12:29.239Z,96906.13
2022-10-21T00:14:57.257Z,96915.31
2022-10-21T00:17:24.125Z,96934.72
2022-10-21T00:19:50.688Z,96941.66
2022-10-21T00:22:17.096Z,96943.47
2022-10-21T00:24:43.648Z,96968.00
2022-10-21T00:27:10.059Z,96961.03
2022-10-21T00:29:36.508Z,96950.84
2022-10-21T00:32:03.051Z,96947.16
2022-10-21T00:34:31.033Z,96977.97
2022-10-21T00:36:57.659Z,96973.91
2022-10-21T00:39:24.151Z,96970.84
2022-10-21T00:41:50.544Z,96970.00
2022-10-21T00:44:17.012Z,96963.91
2022-10-21T00:46:54.115Z,96974.50
2022-10-21T00:49:29.263Z,96974.91
2022-10-21T00:51:59.967Z,96953.69
2022-10-21T00:54:27.339Z,96955.75
2022-10-21T00:56:56.254Z,96941.06
2022-10-21T00:59:31.437Z,96950.44
2022-10-21T01:01:57.972Z,96938.19
2022-10-21T01:04:24.539Z,96942.06
2022-10-21T01:06:51.796Z,96944.72
2022-10-21T01:09:19.752Z,96941.88
2022-10-21T01:11:48.337Z,96928.38
2022-10-21T01:14:39.833Z,96933.91
2022-10-21T01:17:52.029Z,96907.16
2022-10-21T01:20:49.485Z,96920.78
2022-10-21T01:23:34.629Z,96913.63
2022-10-21T01:26:27.482Z,96914.03
2022-10-21T01:29:03.088Z,96915.84
2022-10-21T01:31:39.645Z,96900.53
2022-10-21T01:34:15.107Z,96898.88
2022-10-21T01:36:50.363Z,96898.69
2022-10-21T01:39:33.102Z,96918.69
2022-10-21T01:42:12.755Z,96918.91
2022-10-21T01:45:16.861Z,96910.31
2022-10-21T01:47:49.487Z,96911.38
2022-10-21T01:50:26.269Z,96902.19
2022-10-21T01:52:57.806Z,96909.16
2022-10-21T01:55:29.010Z,96914.63
2022-10-21T01:58:18.676Z,96918.53
2022-10-21T02:00:47.781Z,96904.59
2022-10-21T02:03:20.007Z,96893.09
2022-10-21T02:05:46.751Z,96881.69
2022-10-21T02:08:13.275Z,96874.28
2022-10-21T02:10:44.922Z,96877.59
2022-10-21T02:13:14.911Z,96867.13
2022-10-21T02:15:43.101Z,96862.22
2022-10-21T02:18:19.136Z,96857.09
2022-10-21T02:20:45.645Z,96855.91
2022-10-21T02:23:15.240Z,96878.75
2022-10-21T02:25:46.147Z,96875.19
2022-10-21T02:28:13.597Z,96896.44
2022-10-21T02:30:49.900Z,96911.97
2022-10-21T02:33:23.791Z,96909.56
2022-10-21T02:35:59.822Z,96896.03
2022-10-21T02:38:28.539Z,96885.00
2022-10-21T02:41:03.953Z,96872.72
2022-10-21T02:43:38.539Z,96852.34
2022-10-21T02:46:13.505Z,96819.94
2022-10-21T02:48:43.503Z,96884.19
2022-10-21T02:51:10.239Z,96868.69
2022-10-21T02:53:37.002Z,96875.66
2022-10-21T02:56:04.308Z,96841.41
2022-10-21T02:58:31.143Z,96876.06
2022-10-21T03:00:57.635Z,96856.69
2022-10-21T03:03:24.603Z,96840.16
2022-10-21T03:05:51.162Z,96869.16
2022-10-21T03:08:17.888Z,96877.34
2022-10-21T03:10:46.122Z,96879.53
2022-10-21T03:13:14.481Z,96865.28
2022-10-21T03:15:40.961Z,96876.50
2022-10-21T03:18:07.346Z,96887.34
2022-10-21T03:20:33.709Z,96885.91
2022-10-21T03:23:00.162Z,96869.63
2022-10-21T03:25:26.562Z,96878.56
2022-10-21T03:27:53.366Z,96879.00
2022-10-21T03:30:19.799Z,96874.94
2022-10-21T03:32:46.195Z,96873.50
2022-10-21T03:35:12.708Z,96874.94
2022-10-21T03:37:39.337Z,96878.00
2022-10-21T03:40:09.892Z,96868.19
2022-10-21T03:42:38.970Z,96859.41
2022-10-21T03:45:06.007Z,96853.09
2022-10-21T03:47:32.680Z,96832.88
2022-10-21T03:49:59.134Z,96808.41
2022-10-21T03:52:25.508Z,96789.19
2022-10-21T03:54:51.983Z,96792.88
2022-10-21T03:57:18.485Z,96789.63
2022-10-21T03:59:44.873Z,96762.72
2022-10-21T04:02:11.302Z,96786.75
2022-10-21T04:04:37.877Z,96784.31
2022-10-21T04:07:04.250Z,96807.59
2022-10-21T04:09:30.626Z,96798.63
2022-10-21T04:11:57.002Z,96798.63
2022-10-21T04:14:23.383Z,96795.78
2022-10-21T04:16:53.653Z,96783.34
2022-10-21T04:19:28.628Z,96744.19
2022-10-21T04:21:55.029Z,96765.09
2022-10-21T04:24:21.433Z,96763.41
2022-10-21T04:26:47.809Z,96759.16
2022-10-21T04:29:14.191Z,96768.91
2022-10-21T04:31:40.658Z,96761.78
2022-10-21T04:34:07.089Z,96782.81
2022-10-21T04:36:33.554Z,96779.16
2022-10-21T04:38:59.955Z,96792.47
2022-10-21T04:41:26.361Z,96788.00
2022-10-21T04:43:52.762Z,96776.19
2022-10-21T04:46:20.815Z,96766.78
2022-10-21T04:48:47.206Z,96772.72
2022-10-21T04:51:13.755Z,96770.09
2022-10-21T04:53:40.125Z,96724.38
2022-10-21T04:56:06.960Z,96702.34
2022-10-21T04:58:33.319Z,96724.94
2022-10-21T05:00:59.809Z,96713.97
2022-10-21T05:03:26.262Z,96717.03
2022-10-21T05:05:53.128Z,96706.25
2022-10-21T05:08:20.398Z,96707.66
2022-10-21T05:10:47.199Z,96671.41
2022-10-21T05:13:14.499Z,96691.78
2022-10-21T05:15:40.971Z,96684.88
2022-10-21T05:18:07.417Z,96669.56
2022-10-21T05:20:33.876Z,96659.59
2022-10-21T05:23:00.240Z,96662.63
2022-10-21T05:25:29.190Z,96638.00
2022-10-21T05:27:59.739Z,96653.47
2022-10-21T05:30:26.177Z,96655.53
2022-10-21T05:32:52.749Z,96651.03
2022-10-21T05:35:19.165Z,96648.59
2022-10-21T05:37:45.574Z,96657.97
2022-10-21T05:40:12.323Z,96652.66
2022-10-21T05:42:38.886Z,96648.38
2022-10-21T05:45:06.371Z,96605.81
2022-10-21T05:47:33.034Z,96606.22
2022-10-21T05:49:59.479Z,96597.22
2022-10-21T05:52:25.873Z,96609.50
2022-10-21T05:54:52.278Z,96612.34
2022-10-21T05:57:18.695Z,96617.63
2022-10-21T05:59:45.200Z,96585.44
2022-10-21T06:02:11.833Z,96563.03
2022-10-21T06:04:39.004Z,96548.19
2022-10-21T06:07:05.551Z,96531.06
2022-10-21T06:09:31.956Z,96496.28
2022-10-21T06:11:58.334Z,96502.78
2022-10-21T06:14:26.239Z,96478.34
2022-10-21T06:16:52.819Z,96490.53
2022-10-21T06:19:19.267Z,96464.91
2022-10-21T06:21:47.135Z,96491.75
2022-10-21T06:24:13.634Z,96504.81
2022-10-21T06:26:40.053Z,96485.69
2022-10-21T06:29:07.160Z,96503.97
2022-10-21T06:31:33.899Z,96512.94
2022-10-21T06:34:00.253Z,96522.09
2022-10-21T06:36:26.644Z,96526.16
2022-10-21T06:38:53.104Z,96538.38
2022-10-21T06:41:19.551Z,96558.56
2022-10-21T06:43:45.931Z,96578.69
2022-10-21T06:46:14.144Z,96565.47
2022-10-21T06:48:40.919Z,96598.06
2022-10-21T06:51:15.011Z,96587.88
2022-10-21T06:53:42.224Z,96584.63
2022-10-21T06:56:11.585Z,96578.50
2022-10-21T06:58:39.872Z,96582.78
2022-10-21T07:01:21.471Z,96602.13
2022-10-21T07:03:57.910Z,96609.47
2022-10-21T07:06:24.848Z,96564.06
2022-10-21T07:08:58.430Z,96612.72
2022-10-21T07:11:26.228Z,96609.44
2022-10-21T07:13:52.626Z,96642.91
2022-10-21T07:16:25.238Z,96646.13
2022-10-21T07:18:52.108Z,96646.91
2022-10-21T07:21:20.600Z,96669.31
2022-10-21T07:23:49.290Z,96677.47
2022-10-21T07:26:15.791Z,96653.44
2022-10-21T07:28:46.738Z,96705.22
2022-10-21T07:31:17.944Z,96698.84
2022-10-21T07:33:44.642Z,96699.66
2022-10-21T07:36:14.717Z,96686.88
2022-10-21T07:38:46.333Z,96678.25
2022-10-21T07:41:24.608Z,96700.56
2022-10-21T07:43:51.966Z,96702.13
2022-10-21T07:46:19.889Z,96679.22
2022-10-21T07:48:46.591Z,96668.84
2022-10-21T07:51:16.365Z,96675.84
2022-10-21T07:53:43.077Z,96673.47
2022-10-21T07:56:21.382Z,96655.78
2022-10-21T07:58:47.996Z,96620.97
2022-10-21T08:01:15.917Z,96657.50
2022-10-21T08:03:42.842Z,96635.13
2022-10-21T08:06:10.982Z,96626.13
2022-10-21T08:08:38.012Z,96629.47
2022-10-21T08:11:05.700Z,96653.84
2022-10-21T08:13:32.785Z,96664.19
2022-10-21T08:15:59.325Z,96670.75
2022-10-21T08:18:26.354Z,96709.34
2022-10-21T08:20:53.632Z,96718.53
2022-10-21T08:23:22.095Z,96729.78
2022-10-21T08:25:53.396Z,96725.09
2022-10-21T08:28:21.208Z,96727.66
2022-10-21T08:30:47.819Z,96721.16
2022-10-21T08:33:15.466Z,96723.59
2022-10-21T08:35:42.465Z,96720.72
2022-10-21T08:38:09.757Z,96720.88
2022-10-21T08:40:44.304Z,96715.88
2022-10-21T08:43:20.035Z,96681.28
2022-10-21T08:45:52.716Z,96707.31
2022-10-21T08:48:26.229Z,96669.66
2022-10-21T08:50:57.025Z,96681.34
2022-10-21T08:53:38.880Z,96679.44
2022-10-21T08:56:09.585Z,96707.03
2022-10-21T08:58:36.102Z,96709.31
2022-10-21T09:01:23.887Z,96727.47
2022-10-21T09:04:15.419Z,96735.16
2022-10-21T09:06:44.847Z,96723.72
2022-10-21T09:09:32.742Z,96713.44
2022-10-21T09:12:17.490Z,96701.69
2022-10-21T09:14:54.847Z,96706.81
2022-10-21T09:17:38.490Z,96709.69
2022-10-21T09:20:47.100Z,96707.94
2022-10-21T09:26:12.315Z,96728.44
2022-10-21T09:28:38.734Z,96764.72
2022-10-21T09:31:15.199Z,96769.56
2022-10-21T09:33:47.260Z,96759.34
2022-10-21T09:36:39.308Z,96763.00
2022-10-21T09:39:19.269Z,96760.50
2022-10-21T09:41:55.400Z,96723.47
2022-10-21T09:44:25.027Z,96716.34
2022-10-21T09:46:53.580Z,96704.81
2022-10-21T09:52:21.228Z,96704.53
2022-10-21T09:54:48.883Z,96706.28
2022-10-21T09:57:15.192Z,96687.69
2022-10-21T09:59:57.812Z,96735.91
2022-10-21T10:02:38.187Z,96784.00
2022-10-21T10:05:33.494Z,96827.31
2022-10-21T10:07:59.954Z,96837.53
2022-10-21T10:10:34.295Z,96835.44
2022-10-21T10:13:01.147Z,96828.78
2022-10-21T10:15:36.340Z,96823.97
2022-10-21T10:18:03.416Z,96835.88
2022-10-21T10:20:29.837Z,96801.69
2022-10-21T10:22:59.070Z,96769.91
2022-10-21T10:25:33.274Z,96707.03
2022-10-21T10:28:16.659Z,96658.34
2022-10-21T10:30:42.998Z,96702.53
2022-10-21T10:33:16.729Z,96710.66
2022-10-21T10:35:58.714Z,96710.16
2022-10-21T10:38:54.769Z,96727.00
2022-10-21T10:41:28.886Z,96731.34
2022-10-21T10:43:56.077Z,96750.06
2022-10-21T10:46:26.909Z,96752.88
2022-10-21T10:48:55.489Z,96754.19
2022-10-21T10:51:33.569Z,96743.03
2022-10-21T10:54:19.876Z,96740.16
2022-10-21T10:57:18.631Z,96720.47
2022-10-21T10:59:45.027Z,96718.28
2022-10-21T11:02:12.176Z,96715.59
2022-10-21T11:04:42.525Z,96714.06
2022-10-21T11:07:21.441Z,96715.47
2022-10-21T11:09:51.186Z,96707.47
2022-10-21T11:12:23.837Z,96687.50
2022-10-21T11:14:56.263Z,96688.69
2022-10-21T11:17:31.041Z,96689.69
2022-10-21T11:20:15.174Z,96689.50
2022-10-21T11:22:41.779Z,96699.81
2022-10-21T11:25:50.492Z,96688.16
2022-10-21T11:28:29.832Z,96697.19
2022-10-21T11:31:20.931Z,96687.28
2022-10-21T11:33:56.809Z,96683.66
2022-10-21T11:36:38.507Z,96667.34
2022-10-21T11:39:31.033Z,96691.31
2022-10-21T11:42:11.858Z,96695.06
2022-10-21T11:45:15.250Z,96688.19
2022-10-21T11:47:59.191Z,96671.56
2022-10-21T11:50:39.323Z,96662.97
2022-10-21T11:53:55.560Z,96636.13
2022-10-21T11:56:26.132Z,96609.41
2022-10-21T11:59:17.080Z,96572.41
2022-10-21T12:02:22.044Z,96544.13
2022-10-21T12:04:56.052Z,96511.72
2022-10-21T12:07:59.814Z,96472.28
2022-10-21T12:10:35.948Z,96442.69
2022-10-21T12:13:13.437Z,96404.03
2022-10-21T12:15:46.252Z,96366.09
2022-10-21T12:18:20.455Z,96330.22
2022-10-21T12:20:51.184Z,96327.72
2022-10-21T12:23:23.534Z,96296.63
2022-10-21T12:26:00.363Z,96303.03
2022-10-21T12:28:37.901Z,96293.84
2022-10-21T12:31:28.142Z,96297.59
2022-10-21T12:33:55.391Z,96283.22
2022-10-21T12:36:24.739Z,96281.38
2022-10-21T12:38:58.915Z,96274.09
2022-10-21T12:41:37.675Z,96272.09
2022-10-21T12:44:21.279Z,96277.22
2022-10-21T12:46:56.443Z,96287.38
2022-10-21T12:49:35.933Z,96275.84
2022-10-21T12:52:02.236Z,96286.69
2022-10-21T12:54:35.369Z,96274.94
2022-10-21T12:57:05.985Z,96256.25
2022-10-21T12:59:36.443Z,96273.25
2022-10-21T13:02:05.973Z,96279.50
2022-10-21T13:04:32.345Z,96258.31
2022-10-21T13:06:58.648Z,96288.19
2022-10-21T13:09:36.563Z,96312.38
2022-10-21T13:12:08.972Z,96322.28
2022-10-21T13:14:50.388Z,96322.78
2022-10-21T13:17:19.906Z,96338.03
2022-10-21T13:19:47.541Z,96351.91
2022-10-21T13:22:42.831Z,96349.84
2022-10-21T13:25:31.940Z,96334.34
2022-10-21T13:28:20.306Z,96355.28
2022-10-21T13:30:50.220Z,96391.19
2022-10-21T13:33:22.690Z,96394.75
2022-10-21T13:35:56.395Z,96376.88
2022-10-21T13:38:28.165Z,96427.63
2022-10-21T13:41:04.028Z,96439.34
2022-10-21T13:43:39.473Z,96446.53
2022-10-21T13:46:13.613Z,96449.06
2022-10-21T13:48:42.381Z,96451.91
2022-10-21T13:51:19.935Z,96450.75
2022-10-21T13:53:47.242Z,96440.13
2022-10-21T13:56:23.468Z,96438.63
2022-10-21T13:58:50.311Z,96432.94
2022-10-21T14:01:22.760Z,96411.25
2022-10-21T14:03:49.931Z,96443.03
2022-10-21T14:06:36.303Z,96456.03
2022-10-21T14:09:08.009Z,96440.44
2022-10-21T14:11:42.038Z,96445.75
2022-10-21T14:14:12.744Z,96443.22
2022-10-21T14:16:42.596Z,96479.97
2022-10-21T14:19:19.928Z,96448.28
2022-10-21T14:21:49.269Z,96463.63
2022-10-21T14:24:31.666Z,96481.22
2022-10-21T14:26:58.328Z,96469.47
2022-10-21T14:29:27.523Z,96437.22
2022-10-21T14:31:54.268Z,96466.94
2022-10-21T14:34:25.907Z,96502.97
2022-10-21T14:37:11.799Z,96523.16
2022-10-21T14:39:39.659Z,96523.69
2022-10-21T14:42:17.545Z,96510.22
2022-10-21T14:44:46.351Z,96510.81
2022-10-21T14:47:30.799Z,96523.69
2022-10-21T14:50:00.693Z,96530.41
2022-10-21T14:52:38.320Z,96529.38
2022-10-21T14:55:13.176Z,96540.69
2022-10-21T14:57:45.628Z,96534.53
2022-10-21T15:00:31.553Z,96518.41
2022-10-21T15:03:00.397Z,96520.97
2022-10-21T15:05:49.433Z,96513.81
2022-10-21T15:08:19.184Z,96511.81
2022-10-21T15:10:46.675Z,96494.16
2022-10-21T15:13:20.286Z,96487.91
2022-10-21T15:15:52.613Z,96494.72
2022-10-21T15:18:26.426Z,96493.22
2022-10-21T15:20:59.923Z,96492.75
2022-10-21T15:23:29.032Z,96485.81
2022-10-21T15:26:24.116Z,96488.59
2022-10-21T15:28:52.915Z,96468.06
2022-10-21T15:31:22.298Z,96468.69
2022-10-21T15:33:50.433Z,96477.56
2022-10-21T15:36:18.949Z,96467.84
2022-10-21T15:38:46.730Z,96462.28
2022-10-21T15:41:25.437Z,96375.69
2022-10-21T15:44:16.065Z,96441.38
2022-10-21T15:46:46.359Z,96443.78
2022-10-21T15:49:18.444Z,96442.41
2022-10-21T15:51:45.848Z,96438.09
2022-10-21T15:54:12.843Z,96430.44
2022-10-21T15:56:39.457Z,96421.06
2022-10-21T15:59:06.176Z,96413.31
2022-10-21T16:01:32.940Z,96411.47
2022-10-21T16:03:59.420Z,96408.47
2022-10-21T16:06:26.095Z,96396.66
2022-10-21T16:08:53.415Z,96389.72
2022-10-21T16:11:29.701Z,96385.91
2022-10-21T16:14:09.999Z,96375.38
2022-10-21T16:16:38.357Z,96388.00
2022-10-21T16:19:05.161Z,96372.59
2022-10-21T16:21:31.869Z,96361.31
2022-10-21T16:23:58.518Z,96356.69
2022-10-21T16:26:27.349Z,96364.47
2022-10-21T16:28:56.655Z,96365.88
2022-10-21T16:31:26.169Z,96370.59
2022-10-21T16:33:52.807Z,96337.59
2022-10-21T16:36:41.097Z,96344.25
2022-10-21T16:39:14.924Z,96352.91
2022-10-21T16:41:41.316Z,96346.13
2022-10-21T16:44:07.680Z,96353.66
2022-10-21T16:46:40.390Z,96358.84
2022-10-21T16:49:13.051Z,96358.16
2022-10-21T16:51:42.219Z,96365.00
2022-10-21T16:54:08.612Z,96365.31
2022-10-21T16:56:35.235Z,96367.28
2022-10-21T16:59:01.696Z,96350.84
2022-10-21T17:01:28.148Z,96365.44
2022-10-21T17:03:54.653Z,96368.78
2022-10-21T17:06:23.803Z,96374.38
2022-10-21T17:08:51.970Z,96371.66
2022-10-21T17:11:39.770Z,96393.06
2022-10-21T17:14:08.429Z,96387.75
2022-10-21T17:16:34.970Z,96397.00
2022-10-21T17:19:01.431Z,96403.72
2022-10-21T17:21:31.206Z,96405.44
2022-10-21T17:23:58.997Z,96413.06
2022-10-21T17:26:25.661Z,96402.44
2022-10-21T17:28:52.252Z,96398.00
2022-10-21T17:31:22.617Z,96404.19
2022-10-21T17:33:50.215Z,96405.00
2022-10-21T17:36:17.985Z,96393.13
2022-10-21T17:38:44.418Z,96407.47
2022-10-21T17:41:13.318Z,96412.53
2022-10-21T17:43:39.749Z,96368.97
2022-10-21T17:46:06.549Z,96422.97
2022-10-21T17:48:33.578Z,96425.44
2022-10-21T17:51:01.737Z,96424.16
2022-10-21T17:53:29.236Z,96421.25
2022-10-21T17:56:06.969Z,96413.81
2022-10-21T17:58:34.043Z,96432.59
2022-10-21T18:01:05.776Z,96436.56
2022-10-21T18:03:32.730Z,96439.22
2022-10-21T18:05:59.181Z,96453.81
2022-10-21T18:08:25.584Z,96473.00
2022-10-21T18:10:58.240Z,96460.97
2022-10-21T18:13:26.562Z,96486.19
2022-10-21T18:15:54.127Z,96478.44
2022-10-21T18:18:22.302Z,96480.41
2022-10-21T18:20:49.078Z,96512.16
2022-10-21T18:23:15.897Z,96500.44
2022-10-21T18:25:42.855Z,96503.28
2022-10-21T18:28:09.786Z,96500.81
2022-10-21T18:30:42.332Z,96506.03
2022-10-21T18:33:09.037Z,96536.72
2022-10-21T18:35:35.547Z,96544.66
2022-10-21T18:38:01.972Z,96527.44
2022-10-21T18:40:28.483Z,96541.06
2022-10-21T18:42:54.982Z,96532.47
2022-10-21T18:45:22.713Z,96535.88
2022-10-21T18:47:51.200Z,96537.00
2022-10-21T18:50:18.009Z,96520.66
2022-10-21T18:52:44.468Z,96509.28
2022-10-21T18:55:10.927Z,96500.06
2022-10-21T18:57:37.743Z,96485.94
2022-10-21T19:00:05.550Z,96477.25
2022-10-21T19:02:31.952Z,96486.09
2022-10-21T19:05:01.218Z,96485.53
2022-10-21T19:07:28.735Z,96476.78
2022-10-21T19:09:55.182Z,96468.81
2022-10-21T19:12:23.528Z,96464.19
2022-10-21T19:14:50.399Z,96454.38
2022-10-21T19:17:16.957Z,96435.63
2022-10-21T19:19:43.688Z,96448.75
2022-10-21T19:22:10.200Z,96445.50
2022-10-21T19:24:36.800Z,96443.88
2022-10-21T19:27:03.349Z,96441.09
2022-10-21T19:29:29.751Z,96429.56
2022-10-21T19:31:56.987Z,96425.16
2022-10-21T19:34:26.268Z,96426.53
2022-10-21T19:36:52.986Z,96422.50
2022-10-21T19:39:20.105Z,96432.66
2022-10-21T19:41:46.768Z,96409.34
2022-10-21T19:44:13.598Z,96426.47
2022-10-21T19:46:40.159Z,96417.03
2022-10-21T19:49:09.371Z,96406.75
2022-10-21T19:51:36.656Z,96392.00
2022-10-21T19:54:05.353Z,96401.38
2022-10-21T19:56:34.475Z,96377.66
2022-10-21T19:59:04.525Z,96380.84
2022-10-21T20:01:32.889Z,96394.56
2022-10-21T20:04:01.364Z,96389.13
2022-10-21T20:06:33.369Z,96382.47
2022-10-21T20:09:09.810Z,96382.53
2022-10-21T20:11:36.833Z,96381.97
2022-10-21T20:14:04.255Z,96393.09
2022-10-21T20:16:36.775Z,96402.78
2022-10-21T20:19:06.008Z,96402.94
2022-10-21T20:21:33.931Z,96413.03
2022-10-21T20:24:00.987Z,96406.09
2022-10-21T20:26:29.004Z,96401.16
2022-10-21T20:28:56.504Z,96396.38
2022-10-21T20:31:23.820Z,96387.78
2022-10-21T20:33:51.774Z,96400.44
2022-10-21T20:36:24.391Z,96380.00
2022-10-21T20:38:52.344Z,96397.91
2022-10-21T20:41:25.717Z,96405.59
2022-10-21T20:43:53.451Z,96377.81
2022-10-21T20:46:22.348Z,96420.19
2022-10-21T20:48:50.741Z,96410.91
2022-10-21T20:51:20.444Z,96413.03
2022-10-21T20:53:49.402Z,96411.72
2022-10-21T20:56:16.209Z,96378.78
2022-10-21T20:58:42.972Z,96401.88
2022-10-21T21:01:25.438Z,96396.38
2022-10-21T21:03:58.597Z,96392.00
2022-10-21T21:06:26.123Z,96385.31
2022-10-21T21:09:15.093Z,96374.38
2022-10-21T21:11:39.523Z,96375.16
2022-10-21T21:14:06.115Z,96375.91
2022-10-21T21:16:33.837Z,96374.66
2022-10-21T21:19:03.201Z,96373.75
2022-10-21T21:21:30.875Z,96379.97
2022-10-21T21:23:58.058Z,96384.03
2022-10-21T21:26:26.818Z,96394.28
2022-10-21T21:28:54.034Z,96397.06
2022-10-21T21:31:22.447Z,96413.09
2022-10-21T21:33:49.257Z,96380.94
2022-10-21T21:36:17.320Z,96399.72
2022-10-21T21:38:43.875Z,96404.47
2022-10-21T21:41:10.917Z,96392.94
2022-10-21T21:43:37.965Z,96391.09
2022-10-21T21:46:04.530Z,96391.59
2022-10-21T21:48:32.118Z,96385.78
2022-10-21T21:51:07.129Z,96383.47
2022-10-21T21:53:33.504Z,96380.06
2022-10-21T21:56:04.892Z,96390.56
2022-10-21T21:58:32.116Z,96381.06
2022-10-21T22:01:11.760Z,96387.91
2022-10-21T22:03:39.017Z,96390.69
2022-10-21T22:06:05.563Z,96376.56
2022-10-21T22:08:33.379Z,96398.09
2022-10-21T22:11:11.559Z,96398.66
2022-10-21T22:13:38.897Z,96413.59
2022-10-21T22:16:06.486Z,96417.72
2022-10-21T22:18:33.195Z,96396.19
2022-10-21T22:21:06.157Z,96396.44
2022-10-21T22:23:33.300Z,96387.59
2022-10-21T22:26:00.110Z,96388.63
2022-10-21T22:28:27.162Z,96400.59
2022-10-21T22:31:06.570Z,96382.03
2022-10-21T22:33:33.480Z,96375.88
2022-10-21T22:36:00.787Z,96323.41
2022-10-21T22:38:29.211Z,96343.75
2022-10-21T22:40:57.885Z,96386.00
2022-10-21T22:43:26.045Z,96362.38
2022-10-21T22:45:55.257Z,96395.03
2022-10-21T22:48:27.846Z,96389.34
2022-10-21T22:50:54.355Z,96387.34
2022-10-21T22:53:21.199Z,96365.63
2022-10-21T22:55:47.607Z,96368.88
2022-10-21T22:58:22.099Z,96378.31
2022-10-21T23:00:49.931Z,96402.81
2022-10-21T23:03:18.781Z,96407.28
2022-10-21T23:05:46.519Z,96406.25
2022-10-21T23:08:13.190Z,96386.75
2022-10-21T23:10:39.650Z,96405.63
2022-10-21T23:13:06.252Z,96402.53
2022-10-21T23:15:34.319Z,96386.16
2022-10-21T23:18:01.178Z,96380.47
2022-10-21T23:20:27.893Z,96382.63
2022-10-21T23:22:54.287Z,96357.16
2022-10-21T23:25:22.879Z,96374.22
2022-10-21T23:27:50.006Z,96361.50
2022-10-21T23:30:17.144Z,96350.91
2022-10-21T23:32:43.523Z,96373.59
2022-10-21T23:35:10.355Z,96382.91
2022-10-21T23:37:37.152Z,96380.31
2022-10-21T23:40:05.051Z,96371.03
2022-10-21T23:42:31.472Z,96386.00
2022-10-21T23:44:57.885Z,96382.75
2022-10-21T23:47:24.299Z,96373.00
2022-10-21T23:49:50.670Z,96372.34
2022-10-21T23:52:17.105Z,96360.78
2022-10-21T23:54:43.476Z,96354.53
2022-10-21T23:57:09.837Z,96340.59
2022-10-21T23:59:36.525Z,96338.16
